Flight Track Log - Related Links

Times and Time Zones

All times are in EDT time to prevent confusion due to time zone crossing. See the AAL1326 flight status page for this flight to view local times or setup timezone preferences in your user account.

Time Position Orientation Groundspeed Altitude Reporting Facility
EDT Latitude Longitude Course Direction KTS MPH feet Rate Location/Type
Sun 06:53:12 PM 41.9420 -87.9100 226° Southwest 176 203 1,900  Level FlightAware ADS-B
Sun 06:53:27 PM 41.9300 -87.9130 191° South 188 216 2,400 1,733 Climbing FlightAware ADS-B
Sun 06:53:57 PM 41.8990 -87.9100 176° South 241 277 3,200 2,073 Climbing FlightAware ADS-B
Sun 06:54:22 PM 41.8710 -87.9070 175° South 267 307 4,300 3,055 Climbing FlightAware ADS-B
Sun 06:54:52 PM 41.8320 -87.9030 176° South 281 323 6,000 3,491 Climbing FlightAware ADS-B
Sun 06:55:17 PM 41.7980 -87.9010 177° South 290 334 7,500 3,600 Climbing FlightAware ADS-B
Sun 06:55:47 PM 41.7580 -87.8970 176° South 294 338 9,300 3,257 Climbing FlightAware ADS-B
Sun 06:56:27 PM 41.7040 -87.8760 164° South 314 361 11,300 2,682 Climbing FlightAware ADS-B
Sun 06:57:12 PM 41.6530 -87.8200 141° Southeast 345 397 13,100 2,329 Climbing FlightAware ADS-B
Sun 06:57:52 PM 41.6000 -87.7620 141° Southeast 378 435 14,600 2,259 Climbing FlightAware ADS-B
Sun 06:58:37 PM 41.5380 -87.6950 141° Southeast 402 463 16,300 2,541 Climbing FlightAware ADS-B
Sun 06:59:17 PM 41.4790 -87.6310 141° Southeast 411 473 18,200 2,720 Climbing FlightAware ADS-B
Sun 06:59:52 PM 41.4230 -87.5790 145° Southeast 418 481 19,700 2,480 Climbing FlightAware ADS-B
Sun 07:00:32 PM 41.3460 -87.5590 169° South 428 493 21,300 2,118 Climbing FlightAware ADS-B
Sun 07:01:17 PM 41.2570 -87.5430 172° South 445 512 22,700 1,906 Climbing FlightAware ADS-B
Sun 07:01:57 PM 41.1710 -87.5250 171° South 458 527 24,000 1,976 Climbing FlightAware ADS-B
Sun 07:02:42 PM 41.0790 -87.5000 168° South 466 536 25,500 1,906 Climbing FlightAware ADS-B
Sun 07:03:22 PM 40.9940 -87.4770 168° South 472 543 26,700 1,642 Climbing FlightAware ADS-B
Sun 07:04:17 PM 40.8770 -87.4460 169° South 483 556 28,100 1,440 Climbing FlightAware ADS-B
Sun 07:05:02 PM 40.7820 -87.4210 169° South 491 565 29,100 1,482 Climbing FlightAware ADS-B
Sun 07:05:42 PM 40.6880 -87.3960 169° South 496 571 30,200 1,575 Climbing FlightAware ADS-B
Sun 07:06:22 PM 40.6010 -87.3730 169° South 496 571 31,200 1,624 Climbing FlightAware ADS-B
Sun 07:07:07 PM 40.4910 -87.3430 168° South 497 572 32,500 1,694 Climbing FlightAware ADS-B
Sun 07:07:47 PM 40.4090 -87.2950 156° South 489 563 33,600 1,765 Climbing FlightAware ADS-B
Sun 07:08:32 PM 40.3290 -87.2200 144° Southeast 473 544 35,000 988 Climbing FlightAware ADS-B
Sun 07:09:12 PM 40.2580 -87.1540 145° Southeast 471 542 35,000  Level FlightAware ADS-B
Sun 07:09:47 PM 40.1970 -87.0980 145° Southeast 472 543 35,000 635 Level FlightAware ADS-B
Sun 07:10:37 PM 40.1040 -87.0120 145° Southeast 470 541 35,900 1,067 Climbing FlightAware ADS-B
Sun 07:11:17 PM 40.0400 -86.9520 144° Southeast 469 540 36,600 1,129 Climbing FlightAware ADS-B
Sun 07:12:02 PM 39.9620 -86.8820 145° Southeast 465 535 37,500 1,271 Climbing FlightAware ADS-B
Sun 07:12:42 PM 39.8820 -86.8170 148° Southeast 457 526 38,400 1,125 Climbing FlightAware ADS-B
Sun 07:13:22 PM 39.8100 -86.7620 150° Southeast 452 520 39,000 450 Climbing FlightAware ADS-B
Sun 07:14:02 PM 39.7380 -86.7070 150° Southeast 453 521 39,000  Level FlightAware ADS-B
Sun 07:14:47 PM 39.6580 -86.6440 149° Southeast 454 522 39,000  Level FlightAware ADS-B
Sun 07:15:27 PM 39.5840 -86.5850 148° Southeast 457 526 39,000  Level FlightAware ADS-B
Sun 07:16:12 PM 39.5030 -86.5230 149° Southeast 457 526 39,000  Level FlightAware ADS-B
Sun 07:16:52 PM 39.4310 -86.4670 149° Southeast 458 527 39,000  Level FlightAware ADS-B
Sun 07:17:37 PM 39.3550 -86.4090 149° Southeast 459 528 39,000  Level FlightAware ADS-B
Sun 07:18:17 PM 39.2760 -86.3480 149° Southeast 460 529 39,000  Level FlightAware ADS-B
Sun 07:18:57 PM 39.2020 -86.2920 150° Southeast 460 529 39,000  Level FlightAware ADS-B
Sun 07:19:42 PM 39.1180 -86.2270 149° Southeast 460 529 39,000  Level FlightAware ADS-B
Sun 07:20:17 PM 39.0580 -86.1810 149° Southeast 460 529 39,000  Level FlightAware ADS-B
Sun 07:21:02 PM 38.9720 -86.1160 150° Southeast 460 529 39,000  Level FlightAware ADS-B
Sun 07:21:47 PM 38.8920 -86.0550 149° Southeast 461 531 39,000  Level FlightAware ADS-B
Sun 07:22:27 PM 38.8200 -86.0010 150° Southeast 460 529 39,000  Level FlightAware ADS-B
Sun 07:23:12 PM 38.7350 -85.9360 149° Southeast 463 533 39,000  Level FlightAware ADS-B
Sun 07:23:52 PM 38.6600 -85.8810 150° Southeast 463 533 39,000  Level FlightAware ADS-B
Sun 07:24:32 PM 38.5870 -85.8250 149° Southeast 462 532 39,000  Level FlightAware ADS-B
Sun 07:25:17 PM 38.5050 -85.7630 149° Southeast 461 531 39,000  Level FlightAware ADS-B
Sun 07:25:57 PM 38.4310 -85.7080 150° Southeast 460 529 39,000  Level FlightAware ADS-B
Sun 07:26:42 PM 38.3480 -85.6460 150° Southeast 458 527 39,000  Level FlightAware ADS-B
Sun 07:27:22 PM 38.2750 -85.5920 150° Southeast 455 524 39,000  Level FlightAware ADS-B
Sun 07:28:02 PM 38.2020 -85.5380 150° Southeast 453 521 39,000  Level FlightAware ADS-B
Sun 07:28:47 PM 38.1230 -85.4800 150° Southeast 452 520 39,000  Level FlightAware ADS-B
Sun 07:29:27 PM 38.0510 -85.4260 149° Southeast 452 520 39,000  Level FlightAware ADS-B
Sun 07:30:12 PM 37.9670 -85.3650 150° Southeast 454 522 39,000  Level FlightAware ADS-B
Sun 07:30:39 PM 37.9141 -85.3255 149° Southeast 456 525 39,000  Level FlightAware ADS-B
Sun 07:31:11 PM 37.8571 -85.2837 150° Southeast 456 525 39,000  Level FlightAware ADS-B
Sun 07:32:17 PM 37.7400 -85.1980 150° Southeast 454 522 39,000  Level FlightAware ADS-B
Sun 07:32:24 PM 37.7233 -85.1858 150° Southeast 454 522 39,000  Level FlightAware ADS-B
Sun 07:32:54 PM 37.6685 -85.1458 150° Southeast 453 521 39,000  Level FlightAware ADS-B
Sun 07:33:27 PM 37.6104 -85.1034 150° Southeast 446 513 39,000  Level FlightAware ADS-B
Sun 07:33:57 PM 37.5559 -85.0639 150° Southeast 447 514 39,000  Level FlightAware ADS-B
Sun 07:34:27 PM 37.5021 -85.0249 150° Southeast 446 513 39,000  Level FlightAware ADS-B
Sun 07:34:59 PM 37.4455 -84.9839 150° Southeast 447 514 39,000  Level FlightAware ADS-B
Sun 07:35:30 PM 37.3895 -84.9434 150° Southeast 447 514 39,000  Level FlightAware ADS-B
Sun 07:36:11 PM 37.3159 -84.8902 150° Southeast 447 514 39,000  Level FlightAware ADS-B
Sun 07:36:42 PM 37.2610 -84.8508 150° Southeast 446 513 39,000  Level FlightAware ADS-B
Sun 07:37:12 PM 37.2090 -84.8130 150° Southeast 447 514 39,000  Level FlightAware ADS-B
Sun 07:37:39 PM 37.1586 -84.7773 151° Southeast 449 517 39,000  Level FlightAware ADS-B
Sun 07:38:21 PM 37.0831 -84.7231 150° Southeast 451 519 39,000  Level FlightAware ADS-B
Sun 07:38:54 PM 37.0231 -84.6804 150° Southeast 452 520 39,000  Level FlightAware ADS-B
Sun 07:39:32 PM 36.9536 -84.6308 150° Southeast 456 525 39,000  Level FlightAware ADS-B
Sun 07:40:02 PM 36.8978 -84.5909 150° Southeast 459 528 39,000  Level FlightAware ADS-B
Sun 07:40:36 PM 36.8347 -84.5459 150° Southeast 461 531 39,000  Level FlightAware ADS-B
Sun 07:41:07 PM 36.7780 -84.5056 150° Southeast 462 532 39,000  Level FlightAware ADS-B
Sun 07:41:37 PM 36.7217 -84.4657 150° Southeast 463 533 39,000  Level FlightAware ADS-B
Sun 07:42:08 PM 36.6645 -84.4254 151° Southeast 463 533 39,000  Level FlightAware ADS-B
Sun 07:42:39 PM 36.6063 -84.3844 151° Southeast 459 528 39,000  Level FlightAware ADS-B
Sun 07:43:10 PM 36.5505 -84.3450 150° Southeast 455 524 39,000  Level FlightAware ADS-B
Sun 07:43:41 PM 36.4926 -84.3043 151° Southeast 449 517 39,000  Level FlightAware ADS-B
Sun 07:44:12 PM 36.4383 -84.2664 151° Southeast 448 516 39,000  Level FlightAware ADS-B
Sun 07:44:42 PM 36.3837 -84.2281 151° Southeast 448 516 39,000  Level FlightAware ADS-B
Sun 07:45:13 PM 36.3270 -84.1884 151° Southeast 449 517 39,000  Level FlightAware ADS-B
Sun 07:45:43 PM 36.2726 -84.1502 150° Southeast 450 518 39,000  Level FlightAware ADS-B
Sun 07:46:15 PM 36.2154 -84.1102 151° Southeast 450 518 39,000  Level FlightAware ADS-B
Sun 07:46:47 PM 36.1579 -84.0703 151° Southeast 451 519 39,000  Level FlightAware ADS-B
Sun 07:47:18 PM 36.1004 -84.0303 151° Southeast 450 518 39,000  Level FlightAware ADS-B
Sun 07:47:49 PM 36.0448 -83.9916 151° Southeast 449 517 39,000  Level FlightAware ADS-B
Sun 07:48:19 PM 35.9903 -83.9539 151° Southeast 449 517 39,000  Level FlightAware ADS-B
Sun 07:48:47 PM 35.9393 -83.9188 151° Southeast 447 514 39,000  Level FlightAware ADS-B
Sun 07:48:58 PM 35.9188 -83.9066 154° Southeast 442 509 39,000  Level FlightAware ADS-B
Sun 07:49:03 PM 35.9093 -83.9014 156° South 439 505 39,000  Level FlightAware ADS-B
Sun 07:49:13 PM 35.8908 -83.8927 159° South 436 502 39,000  Level FlightAware ADS-B
Sun 07:49:32 PM 35.8540 -83.8796 164° South 428 493 39,000  Level FlightAware ADS-B
Sun 07:50:04 PM 35.7933 -83.8615 166° South 427 491 39,000  Level FlightAware ADS-B
Sun 07:50:35 PM 35.7336 -83.8437 166° South 427 491 39,000  Level FlightAware ADS-B
Sun 07:51:05 PM 35.6759 -83.8266 166° South 428 493 39,000  Level FlightAware ADS-B
Sun 07:51:35 PM 35.6175 -83.8094 167° South 428 493 39,000  Level FlightAware ADS-B
Sun 07:52:06 PM 35.5581 -83.7919 167° South 429 494 39,000  Level FlightAware ADS-B
Sun 07:52:38 PM 35.4966 -83.7737 166° South 432 497 39,000  Level FlightAware ADS-B
Sun 07:53:09 PM 35.4361 -83.7557 166° South 434 499 39,000  Level FlightAware ADS-B
Sun 07:53:40 PM 35.3755 -83.7378 166° South 435 501 39,000  Level FlightAware ADS-B
Sun 07:54:14 PM 35.3086 -83.7179 166° South 436 502 39,000  Level FlightAware ADS-B
Sun 07:54:44 PM 35.2489 -83.7005 167° South 436 502 39,000  Level FlightAware ADS-B
Sun 07:55:20 PM 35.1787 -83.6800 167° South 436 502 39,000  Level FlightAware ADS-B
Sun 07:55:51 PM 35.1181 -83.6624 167° South 432 497 39,000  Level FlightAware ADS-B
Sun 07:56:21 PM 35.0600 -83.6456 167° South 429 494 39,000  Level FlightAware ADS-B
Sun 07:56:59 PM 34.9876 -83.6244 167° South 426 490 39,000  Level FlightAware ADS-B
Sun 07:57:29 PM 34.9289 -83.6073 167° South 426 490 39,000  Level FlightAware ADS-B
Sun 07:58:00 PM 34.8714 -83.5905 167° South 427 491 39,000  Level FlightAware ADS-B
Sun 07:58:34 PM 34.8053 -83.5713 167° South 427 491 39,000  Level FlightAware ADS-B
Sun 07:59:06 PM 34.7444 -83.5534 166° South 427 491 39,000  Level FlightAware ADS-B
Sun 07:59:36 PM 34.6864 -83.5363 166° South 427 491 39,000  Level FlightAware ADS-B
Sun 08:00:06 PM 34.6277 -83.5194 167° South 426 490 39,000  Level FlightAware ADS-B
Sun 08:00:37 PM 34.5696 -83.5028 167° South 425 489 39,000  Level FlightAware ADS-B
Sun 08:01:09 PM 34.5073 -83.4850 167° South 425 489 39,000  Level FlightAware ADS-B
Sun 08:01:40 PM 34.4491 -83.4683 167° South 427 491 39,000  Level FlightAware ADS-B
Sun 08:02:11 PM 34.3882 -83.4508 167° South 429 494 39,000  Level FlightAware ADS-B
Sun 08:02:52 PM 34.3150 -83.4300 167° South 429 494 39,000  Level FlightAware ADS-B
Sun 08:03:01 PM 34.2917 -83.4231 166° South 431 496 39,000  Level FlightAware ADS-B
Sun 08:03:31 PM 34.2332 -83.4063 167° South 432 497 39,000  Level FlightAware ADS-B
Sun 08:04:07 PM 34.1633 -83.3863 167° South 433 498 39,000  Level FlightAware ADS-B
Sun 08:04:36 PM 34.1061 -83.3703 167° South 432 497 39,000  Level FlightAware ADS-B
Sun 08:05:11 PM 34.0383 -83.3543 169° South 433 498 39,000  Level FlightAware ADS-B
Sun 08:05:41 PM 33.9779 -83.3404 169° South 434 499 39,000  Level FlightAware ADS-B
Sun 08:06:22 PM 33.9060 -83.3240 169° South 424 488 39,000 148 Level FlightAware ADS-B
Sun 08:07:02 PM 33.8290 -83.3050 168° South 425 489 39,200 525 Climbing FlightAware ADS-B
Sun 08:07:42 PM 33.7470 -83.2860 169° South 426 490 39,700 565 Climbing FlightAware ADS-B
Sun 08:08:27 PM 33.6560 -83.2650 169° South 439 505 40,000 225 Climbing FlightAware ADS-B
Sun 08:09:02 PM 33.5860 -83.2490 169° South 442 509 40,000  Level FlightAware ADS-B
Sun 08:09:52 PM 33.4840 -83.2250 169° South 442 509 40,000  Level FlightAware ADS-B
Sun 08:10:32 PM 33.4020 -83.2050 168° South 440 506 40,000  Level FlightAware ADS-B
Sun 08:11:17 PM 33.3150 -83.1850 169° South 439 505 40,000  Level FlightAware ADS-B
Sun 08:11:57 PM 33.2350 -83.1670 169° South 441 507 40,000  Level FlightAware ADS-B
Sun 08:12:37 PM 33.1550 -83.1480 169° South 440 506 40,000  Level FlightAware ADS-B
Sun 08:13:22 PM 33.0640 -83.1270 169° South 439 505 40,000  Level FlightAware ADS-B
Sun 08:13:52 PM 33.0040 -83.1130 169° South 437 503 40,000  Level FlightAware ADS-B
Sun 08:15:17 PM 32.8420 -83.0760 169° South 438 504 40,000  Level FlightAware ADS-B
Sun 08:16:02 PM 32.7610 -83.0560 168° South 438 504 40,000  Level FlightAware ADS-B
Sun 08:16:52 PM 32.6770 -83.0340 168° South 438 504 40,000  Level FlightAware ADS-B
Sun 08:17:32 PM 32.6100 -83.0170 168° South 438 504 40,000  Level FlightAware ADS-B
Sun 08:18:12 PM 32.5420 -83.0000 168° South 438 504 40,000  Level FlightAware ADS-B
Sun 08:18:52 PM 32.4750 -82.9830 168° South 438 504 40,000  Level FlightAware ADS-B
Sun 08:19:32 PM 32.4080 -82.9660 168° South 438 504 40,000  Level FlightAware ADS-B
Sun 08:20:22 PM 32.3230 -82.9450 168° South 438 504 40,000  Level FlightAware ADS-B
Sun 08:21:02 PM 32.2560 -82.9280 168° South 438 504 40,000  Level FlightAware ADS-B
Sun 08:21:42 PM 32.1890 -82.9110 168° South 438 504 40,000  Level FlightAware ADS-B
Sun 08:22:22 PM 32.1210 -82.8940 168° South 438 504 40,000  Level FlightAware ADS-B
Sun 08:23:02 PM 32.0540 -82.8780 169° South 438 504 40,000  Level FlightAware ADS-B
Sun 08:23:52 PM 31.9700 -82.8560 167° South 438 504 40,000  Level FlightAware ADS-B
Sun 08:24:32 PM 31.9020 -82.8400 169° South 438 504 40,000  Level FlightAware ADS-B
Sun 08:25:12 PM 31.8350 -82.8230 168° South 438 504 40,000  Level FlightAware ADS-B
Sun 08:25:52 PM 31.5881 -82.7925 168° South 449 517 40,000  Level Jacksonville Center
Sun 08:26:52 PM 31.4650 -82.7658 170° South 449 517 40,000  Level Jacksonville Center
Sun 08:27:52 PM 31.3458 -82.7369 168° South 449 517 40,000  Level Jacksonville Center
Sun 08:28:52 PM 31.2206 -82.7128 171° South 449 517 40,000  Level Jacksonville Center
Sun 08:29:52 PM 31.1017 -82.7131 180° South 449 517 40,000  Level Jacksonville Center
Sun 08:30:52 PM 30.9764 -82.7181 182° South 444 511 40,000  Level Jacksonville Center
Sun 08:31:52 PM 30.8553 -82.7183 180° South 438 504 40,000 -50 Level Jacksonville Center
Sun 08:32:52 PM 30.7319 -82.7186 180° South 438 504 39,900  Descending Jacksonville Center
Sun 08:33:52 PM 30.5964 -82.7164 179° South 438 504 40,000 -350 Climbing Jacksonville Center
Sun 08:34:52 PM 30.4919 -82.7022 173° South 438 504 39,200 -550 Descending Jacksonville Center
Sun 08:35:52 PM 30.3686 -82.6758 170° South 445 512 38,900 -31 Descending Jacksonville Center
Sun 08:41:22 PM 29.6760 -82.5520 170° South 443 510 39,000 16 Climbing FlightAware ADS-B
Sun 08:42:02 PM 29.5950 -82.5380 171° South 443 510 39,000  Level FlightAware ADS-B
Sun 08:42:37 PM 29.5190 -82.5240 171° South 443 510 39,000  Level FlightAware ADS-B
Sun 08:43:27 PM 29.4340 -82.5070 170° South 443 510 39,000  Level FlightAware ADS-B
Sun 08:44:07 PM 29.3360 -82.4910 172° South 442 509 39,000  Level FlightAware ADS-B
Sun 08:44:52 PM 29.2430 -82.4730 170° South 449 517 39,000  Level FlightAware ADS-B
Sun 08:45:32 PM 29.1580 -82.4580 171° South 450 518 39,000  Level FlightAware ADS-B
Sun 08:46:12 PM 29.0780 -82.4480 174° South 447 514 39,000  Level FlightAware ADS-B
Sun 08:46:57 PM 28.9800 -82.4530 183° South 445 512 39,000  Level FlightAware ADS-B
Sun 08:47:37 PM 28.9020 -82.4580 183° South 443 510 39,000  Level FlightAware ADS-B
Sun 08:48:22 PM 28.8080 -82.4630 183° South 441 507 39,000  Level FlightAware ADS-B
Sun 08:49:02 PM 28.7260 -82.4680 183° South 440 506 39,000  Level FlightAware ADS-B
Sun 08:49:42 PM 28.6460 -82.4730 183° South 442 509 39,000  Level FlightAware ADS-B
Sun 08:50:27 PM 28.5510 -82.4780 183° South 442 509 39,000  Level FlightAware ADS-B
Sun 08:51:07 PM 28.4690 -82.4820 182° South 443 510 39,000  Level FlightAware ADS-B
Sun 08:51:52 PM 28.3790 -82.4870 183° South 442 509 39,000  Level FlightAware ADS-B
Sun 08:52:32 PM 28.2960 -82.4920 183° South 439 505 39,000  Level FlightAware ADS-B
Sun 08:53:12 PM 28.2150 -82.4970 183° South 439 505 39,000  Level FlightAware ADS-B
Sun 08:53:57 PM 28.1220 -82.5020 183° South 437 503 39,000  Level FlightAware ADS-B
Sun 08:54:37 PM 28.0440 -82.5070 183° South 436 502 39,000  Level FlightAware ADS-B
Sun 08:55:32 PM 27.9300 -82.5010 177° South 443 510 39,000  Level FlightAware ADS-B
Sun 08:56:17 PM 27.8450 -82.4700 162° South 443 510 39,000  Level FlightAware ADS-B
Sun 08:56:57 PM 27.7670 -82.4420 162° South 443 510 39,000  Level FlightAware ADS-B
Sun 08:57:42 PM 27.6750 -82.4080 162° South 444 511 39,000  Level FlightAware ADS-B
Sun 08:58:22 PM 27.5970 -82.3790 162° South 443 510 39,000  Level FlightAware ADS-B
Sun 08:59:02 PM 27.5230 -82.3520 162° South 443 510 39,000  Level FlightAware ADS-B
Sun 08:59:47 PM 27.4350 -82.3190 162° South 442 509 39,000  Level FlightAware ADS-B
Sun 09:00:27 PM 27.3580 -82.2910 162° South 443 510 39,000 -494 Level FlightAware ADS-B
Sun 09:01:12 PM 27.2670 -82.2580 162° South 440 506 38,300 -988 Descending FlightAware ADS-B
Sun 09:01:52 PM 27.1890 -82.2300 162° South 439 505 37,600 -960 Descending FlightAware ADS-B
Sun 09:02:27 PM 27.1290 -82.2080 162° South 441 507 37,100 -1,765 Descending FlightAware ADS-B
Sun 09:03:17 PM 27.0270 -82.1710 162° South 438 504 35,100 -2,733 Descending FlightAware ADS-B
Sun 09:03:57 PM 26.9460 -82.1410 162° South 456 525 33,000 -3,120 Descending FlightAware ADS-B
Sun 09:04:32 PM 26.8790 -82.1170 162° South 454 522 31,200 -2,727 Descending FlightAware ADS-B
Sun 09:04:52 PM 26.8350 -82.0940 155° Southeast 463 533 30,500 -2,400 Descending FlightAware ADS-B
Sun 09:05:37 PM 26.7710 -82.0150 132° Southeast 460 529 28,600 -2,475 Descending FlightAware ADS-B
Sun 09:06:12 PM 26.7280 -81.9460 125° Southeast 453 521 27,200 -2,400 Descending FlightAware ADS-B
Sun 09:06:57 PM 26.6750 -81.8620 125° Southeast 436 502 25,400 -2,267 Descending FlightAware ADS-B
Sun 09:07:42 PM 26.6240 -81.7810 125° Southeast 426 490 23,800 -2,250 Descending FlightAware ADS-B
Sun 09:08:17 PM 26.5830 -81.7160 125° Southeast 419 482 22,400 -2,175 Descending FlightAware ADS-B
Sun 09:09:02 PM 26.5360 -81.6420 125° Southeast 405 466 20,900 -2,000 Descending FlightAware ADS-B
Sun 09:09:47 PM 26.4890 -81.5680 125° Southeast 390 449 19,400 -2,047 Descending FlightAware ADS-B
Sun 09:10:27 PM 26.4470 -81.5020 125° Southeast 377 434 18,000 -2,118 Descending FlightAware ADS-B
Sun 09:11:12 PM 26.4020 -81.4320 126° Southeast 365 420 16,400 -2,047 Descending FlightAware ADS-B
Sun 09:11:52 PM 26.3650 -81.3730 125° Southeast 357 411 15,100 -1,906 Descending FlightAware ADS-B
Sun 09:12:37 PM 26.3240 -81.3090 126° Southeast 347 399 13,700 -1,950 Descending FlightAware ADS-B
Sun 09:13:12 PM 26.2910 -81.2580 126° Southeast 339 390 12,500 -2,100 Descending FlightAware ADS-B
Sun 09:13:57 PM 26.2470 -81.1890 125° Southeast 330 380 10,900 -1,467 Descending FlightAware ADS-B
Sun 09:14:42 PM 26.2090 -81.1300 126° Southeast 295 339 10,300 -706 Descending FlightAware ADS-B
Sun 09:15:22 PM 26.1790 -81.0830 125° Southeast 264 304 9,900 -686 Descending FlightAware ADS-B
Sun 09:15:52 PM 26.1570 -81.0500 127° Southeast 258 297 9,500 -1,091 Descending FlightAware ADS-B
Sun 09:16:17 PM 26.1400 -81.0220 124° Southeast 253 291 8,900 -1,200 Descending FlightAware ADS-B
Sun 09:16:47 PM 26.1190 -80.9910 127° Southeast 256 295 8,400 -1,067 Descending FlightAware ADS-B
Sun 09:17:02 PM 26.1130 -80.9720 109° East 264 304 8,100 -750 Descending FlightAware ADS-B
Sun 09:17:27 PM 26.1110 -80.9370 94° East 270 311 7,900 -300 Descending FlightAware ADS-B
Sun 09:17:42 PM 26.1100 -80.9170 93° East 271 312 7,900  Level FlightAware ADS-B
Sun 09:18:12 PM 26.1080 -80.8750 93° East 271 312 7,900 -218 Level FlightAware ADS-B
Sun 09:18:37 PM 26.1070 -80.8400 92° East 269 310 7,700 -982 Descending FlightAware ADS-B
Sun 09:19:07 PM 26.1050 -80.7990 93° East 269 310 7,000 -1,300 Descending FlightAware ADS-B
Sun 09:19:37 PM 26.1030 -80.7570 93° East 263 303 6,400 -1,200 Descending FlightAware ADS-B
Sun 09:20:02 PM 26.1010 -80.7250 94° East 263 303 5,900 -1,309 Descending FlightAware ADS-B
Sun 09:20:32 PM 26.0990 -80.6840 93° East 259 298 5,200 -1,091 Descending FlightAware ADS-B
Sun 09:20:57 PM 26.0970 -80.6500 94° East 260 299 4,900 -327 Descending FlightAware ADS-B
Sun 09:21:27 PM 26.0950 -80.6090 93° East 254 292 4,900  Level FlightAware ADS-B
Sun 09:21:52 PM 26.0940 -80.5780 92° East 233 268 4,900 -218 Level FlightAware ADS-B
Sun 09:22:22 PM 26.0920 -80.5440 94° East 225 259 4,700 -533 Descending FlightAware ADS-B
Sun 09:22:37 PM 26.0910 -80.5260 94° East 223 257 4,500 -800 Descending FlightAware ADS-B
Sun 09:23:07 PM 26.0890 -80.4920 94° East 215 247 4,100 -873 Descending FlightAware ADS-B
Sun 09:23:32 PM 26.0880 -80.4650 92° East 207 238 3,700 -1,200 Descending FlightAware ADS-B
Sun 09:24:02 PM 26.0860 -80.4330 94° East 207 238 3,000 -1,271 Descending FlightAware ADS-B
Sun 09:24:57 PM 26.0830 -80.3750 93° East 203 234 1,900 -943 Descending FlightAware ADS-B
Sun 09:25:12 PM 26.0820 -80.3600 94° East 202 232 1,900  Level FlightAware ADS-B
Sun 09:26:02 PM 26.0800 -80.3140 93° East 164 189 1,900  Level FlightAware ADS-B
Sun 09:26:27 PM 26.0780 -80.2940 96° East 157 181 1,900  Level FlightAware ADS-B
Sun 09:26:42 PM 26.0780 -80.2820 90° East 148 170 1,900 -400 Level FlightAware ADS-B
Sun 09:27:12 PM 26.0770 -80.2610 93° East 138 159 1,600 -686 Descending FlightAware ADS-B
Sun 09:27:52 PM 26.0770 -80.2320 90° East 139 160 1,100 -771 Descending FlightAware ADS-B
Sun 09:28:22 PM 26.0770 -80.2120 90° East 134 154 700 -764 Descending FlightAware ADS-B
Sun 09:28:47 PM 26.0770 -80.1940 90° East 136 157 400 -429 Descending FlightAware ADS-B
Sun 09:29:32 PM 26.0770 -80.1640 90° East 141 162 200 -267 Descending FlightAware ADS-B

Login

Don't have an account? Register now (free) for customized features, flight alerts, and more!